createdAt,value
2018-01-30T00:01:44.683Z,99365
2018-01-30T00:04:12.296Z,99361
2018-01-30T00:06:39.860Z,99364
2018-01-30T00:09:07.428Z,99378
2018-01-30T00:11:35.123Z,99387
2018-01-30T00:14:03.452Z,99394
2018-01-30T00:16:31.267Z,99398
2018-01-30T00:18:59.628Z,99371
2018-01-30T00:21:27.293Z,99369
2018-01-30T00:23:54.957Z,99371
2018-01-30T00:26:22.624Z,99376
2018-01-30T00:28:50.963Z,99379
2018-01-30T00:31:18.558Z,99389
2018-01-30T00:33:46.906Z,99398
2018-01-30T00:36:14.473Z,99407
2018-01-30T00:38:42.032Z,99409
2018-01-30T00:41:09.600Z,99409
2018-01-30T00:43:37.197Z,99408
2018-01-30T00:46:04.769Z,99406
2018-01-30T00:48:33.835Z,99420
2018-01-30T00:51:01.698Z,99414
2018-01-30T00:53:29.259Z,99409
2018-01-30T00:55:56.831Z,99423
2018-01-30T00:58:24.397Z,99413
2018-01-30T01:00:51.983Z,99426
2018-01-30T01:03:19.658Z,99440
2018-01-30T01:05:48.029Z,99450
2018-01-30T01:08:16.409Z,99447
2018-01-30T01:10:44.785Z,99445
2018-01-30T01:13:12.472Z,99470
2018-01-30T01:15:40.846Z,99463
2018-01-30T01:18:09.190Z,99462
2018-01-30T01:20:36.758Z,99475
2018-01-30T01:23:04.328Z,99482
2018-01-30T01:25:32.097Z,99473
2018-01-30T01:28:01.492Z,99486
2018-01-30T01:30:29.844Z,99485
2018-01-30T01:32:57.437Z,99494
2018-01-30T01:35:25.101Z,99504
2018-01-30T01:37:52.663Z,99488
2018-01-30T01:40:20.227Z,99503
2018-01-30T01:42:47.888Z,99498
2018-01-30T01:45:16.225Z,99513
2018-01-30T01:47:43.829Z,99522
2018-01-30T01:50:12.201Z,99517
2018-01-30T01:52:41.287Z,99530
2018-01-30T01:55:08.873Z,99534
2018-01-30T01:57:37.594Z,99541
2018-01-30T02:00:05.218Z,99532
2018-01-30T02:02:33.714Z,99548
2018-01-30T02:05:02.297Z,99554
2018-01-30T02:07:31.145Z,99550
2018-01-30T02:09:58.751Z,99543
2018-01-30T02:12:27.129Z,99549
2018-01-30T02:14:55.493Z,99549
2018-01-30T02:17:23.057Z,99565
2018-01-30T02:19:51.389Z,99550
2018-01-30T02:22:18.990Z,99561
2018-01-30T02:24:46.663Z,99561
2018-01-30T02:27:15.037Z,99569
2018-01-30T02:29:42.597Z,99572
2018-01-30T02:32:10.162Z,99577
2018-01-30T02:34:38.516Z,99584
2018-01-30T02:37:06.086Z,99584
2018-01-30T02:39:33.656Z,99580
2018-01-30T02:42:01.218Z,99581
2018-01-30T02:44:28.797Z,99589
2018-01-30T02:46:57.124Z,99589
2018-01-30T02:49:24.737Z,99589
2018-01-30T02:51:53.086Z,99577
2018-01-30T02:54:21.451Z,99588
2018-01-30T02:56:49.027Z,99581
2018-01-30T02:59:16.707Z,99587
2018-01-30T03:01:45.039Z,99585
2018-01-30T03:04:12.653Z,99583
2018-01-30T03:06:41.036Z,99585
2018-01-30T03:09:09.410Z,99576
2018-01-30T03:11:37.741Z,99585
2018-01-30T03:14:05.320Z,99592
2018-01-30T03:16:33.009Z,99599
2018-01-30T03:19:01.381Z,99604
2018-01-30T03:21:28.957Z,99609
2018-01-30T03:23:57.536Z,99613
2018-01-30T03:26:25.871Z,99609
2018-01-30T03:28:53.448Z,99618
2018-01-30T03:31:21.071Z,99625
2018-01-30T03:33:48.593Z,99637
2018-01-30T03:36:16.160Z,99633
2018-01-30T03:38:44.489Z,99646
2018-01-30T03:41:12.060Z,99643
2018-01-30T03:43:39.634Z,99651
2018-01-30T03:46:07.313Z,99649
2018-01-30T03:48:34.908Z,99649
2018-01-30T03:51:02.525Z,99641
2018-01-30T03:53:30.630Z,99628
2018-01-30T03:55:58.978Z,99633
2018-01-30T03:58:26.665Z,99629
2018-01-30T04:00:54.999Z,99625
2018-01-30T04:03:22.596Z,99620
2018-01-30T04:05:50.169Z,99626
2018-01-30T04:08:18.506Z,99644
2018-01-30T04:10:46.072Z,99641
2018-01-30T04:13:13.636Z,99655
2018-01-30T04:15:41.315Z,99661
2018-01-30T04:18:08.875Z,99664
2018-01-30T04:20:36.541Z,99669
2018-01-30T04:23:04.208Z,99658
2018-01-30T04:25:32.575Z,99666
2018-01-30T04:28:00.639Z,99685
2018-01-30T04:30:28.316Z,99693
2018-01-30T04:32:56.047Z,99680
2018-01-30T04:35:23.652Z,99678
2018-01-30T04:37:51.981Z,99683
2018-01-30T04:40:19.557Z,99676
2018-01-30T04:42:47.130Z,99676
2018-01-30T04:45:14.831Z,99666
2018-01-30T04:47:43.178Z,99667
2018-01-30T04:50:10.828Z,99664
2018-01-30T04:52:38.411Z,99668
2018-01-30T04:55:05.972Z,99685
2018-01-30T04:57:33.584Z,99686
2018-01-30T05:00:01.178Z,99693
2018-01-30T05:02:28.751Z,99671
2018-01-30T05:04:56.414Z,99705
2018-01-30T05:07:23.984Z,99702
2018-01-30T05:09:52.322Z,99701
2018-01-30T05:12:19.946Z,99706
2018-01-30T05:14:47.522Z,99710
2018-01-30T05:17:15.106Z,99731
2018-01-30T05:19:42.713Z,99729
2018-01-30T05:22:11.081Z,99730
2018-01-30T05:24:38.688Z,99725
2018-01-30T05:27:06.327Z,99720
2018-01-30T05:29:33.909Z,99727
2018-01-30T05:32:01.704Z,99726
2018-01-30T05:34:29.305Z,99715
2018-01-30T05:36:57.652Z,99729
2018-01-30T05:39:25.276Z,99724
2018-01-30T05:41:52.921Z,99736
2018-01-30T05:44:20.597Z,99726
2018-01-30T05:46:48.167Z,99728
2018-01-30T05:49:15.733Z,99733
2018-01-30T05:51:43.339Z,99731
2018-01-30T05:54:10.916Z,99735
2018-01-30T05:56:39.299Z,99727
2018-01-30T05:59:07.628Z,99729
2018-01-30T06:01:35.371Z,99730
2018-01-30T06:04:02.994Z,99729
2018-01-30T06:06:31.715Z,99736
2018-01-30T06:08:59.323Z,99737
2018-01-30T06:11:27.010Z,99731
2018-01-30T06:13:55.615Z,99738
2018-01-30T06:16:23.249Z,99735
2018-01-30T06:18:50.823Z,99732
2018-01-30T06:21:19.196Z,99749
2018-01-30T06:23:47.565Z,99754
2018-01-30T06:26:15.232Z,99747
2018-01-30T06:28:42.894Z,99763
2018-01-30T06:31:10.587Z,99759
2018-01-30T06:33:38.151Z,99755
2018-01-30T06:36:05.792Z,99748
2018-01-30T06:38:34.142Z,99754
2018-01-30T06:41:01.961Z,99752
2018-01-30T06:43:29.544Z,99757
2018-01-30T06:45:57.151Z,99740
2018-01-30T06:48:24.719Z,99751
2018-01-30T06:50:53.094Z,99762
2018-01-30T06:53:21.444Z,99757
2018-01-30T06:55:49.030Z,99755
2018-01-30T06:58:16.611Z,99776
2018-01-30T07:00:44.942Z,99769
2018-01-30T07:03:12.563Z,99790
2018-01-30T07:05:40.131Z,99784
2018-01-30T07:08:07.768Z,99793
2018-01-30T07:10:36.140Z,99796
2018-01-30T07:13:04.736Z,99795
2018-01-30T07:15:33.107Z,99788
2018-01-30T07:18:01.591Z,99792
2018-01-30T07:20:30.886Z,99792
2018-01-30T07:22:59.270Z,99796
2018-01-30T07:25:27.601Z,99798
2018-01-30T07:27:55.160Z,99788
2018-01-30T07:30:23.214Z,99802
2018-01-30T07:32:50.852Z,99808
2018-01-30T07:35:19.195Z,99818
2018-01-30T07:37:46.787Z,99831
2018-01-30T07:40:15.120Z,99839
2018-01-30T07:42:42.690Z,99848
2018-01-30T07:45:10.277Z,99860
2018-01-30T07:47:37.948Z,99852
2018-01-30T07:50:06.326Z,99852
2018-01-30T07:52:34.662Z,99841
2018-01-30T07:55:02.231Z,99843
2018-01-30T07:57:29.809Z,99835
2018-01-30T07:59:57.371Z,99845
2018-01-30T08:02:25.044Z,99845
2018-01-30T08:04:53.423Z,99842
2018-01-30T08:07:20.988Z,99836
2018-01-30T08:09:48.648Z,99856
2018-01-30T08:12:16.219Z,99844
2018-01-30T08:14:44.592Z,99841
2018-01-30T08:17:12.941Z,99845
2018-01-30T08:19:40.513Z,99841
2018-01-30T08:22:08.090Z,99836
2018-01-30T08:24:35.763Z,99849
2018-01-30T08:27:04.141Z,99856
2018-01-30T08:29:32.504Z,99855
2018-01-30T08:32:00.605Z,99849
2018-01-30T08:34:28.184Z,99852
2018-01-30T08:36:55.808Z,99846
2018-01-30T08:39:24.191Z,99838
2018-01-30T08:41:52.561Z,99836
2018-01-30T08:44:20.135Z,99831
2018-01-30T08:46:48.511Z,99842
2018-01-30T08:49:16.875Z,99836
2018-01-30T08:51:44.562Z,99854
2018-01-30T08:54:13.047Z,99862
2018-01-30T08:56:41.406Z,99862
2018-01-30T08:59:09.078Z,99855
2018-01-30T09:01:37.454Z,99853
2018-01-30T09:04:05.020Z,99835
2018-01-30T09:06:33.394Z,99846
2018-01-30T09:09:01.982Z,99834
2018-01-30T09:11:30.725Z,99843
2018-01-30T09:13:58.326Z,99852
2018-01-30T09:16:25.988Z,99847
2018-01-30T09:18:53.659Z,99846
2018-01-30T09:21:22.008Z,99842
2018-01-30T09:23:49.595Z,99844
2018-01-30T09:26:17.944Z,99847
2018-01-30T09:28:45.521Z,99851
2018-01-30T09:31:13.209Z,99853
2018-01-30T09:33:41.588Z,99855
2018-01-30T09:36:09.985Z,99847
2018-01-30T09:38:38.388Z,99848
2018-01-30T09:41:06.719Z,99850
2018-01-30T09:43:35.090Z,99856
2018-01-30T09:46:02.661Z,99849
2018-01-30T09:48:31.106Z,99854
2018-01-30T09:50:58.695Z,99850
2018-01-30T09:53:26.364Z,99835
2018-01-30T09:55:54.703Z,99841
2018-01-30T09:58:22.288Z,99855
2018-01-30T10:00:49.855Z,99846
2018-01-30T10:03:17.419Z,99855
2018-01-30T10:05:44.994Z,99850
2018-01-30T10:08:12.654Z,99846
2018-01-30T10:10:41.023Z,99858
2018-01-30T10:13:08.687Z,99863
2018-01-30T10:15:36.366Z,99854
2018-01-30T10:18:04.737Z,99851
2018-01-30T10:20:33.075Z,99848
2018-01-30T10:23:01.170Z,99850
2018-01-30T10:25:28.744Z,99858
2018-01-30T10:27:57.129Z,99857
2018-01-30T10:30:25.513Z,99853
2018-01-30T10:32:53.875Z,99846
2018-01-30T10:35:22.216Z,99840
2018-01-30T10:37:49.786Z,99839
2018-01-30T10:40:17.384Z,99843
2018-01-30T10:42:45.771Z,99833
2018-01-30T10:45:14.139Z,99835
2018-01-30T10:47:41.825Z,99834
2018-01-30T10:50:09.479Z,99831
2018-01-30T10:52:37.849Z,99824
2018-01-30T10:55:05.425Z,99833
2018-01-30T10:57:33.764Z,99834
2018-01-30T11:00:01.464Z,99826
2018-01-30T11:02:30.367Z,99826
2018-01-30T11:04:57.947Z,99820
2018-01-30T11:07:25.579Z,99823
2018-01-30T11:09:53.911Z,99806
2018-01-30T11:12:21.512Z,99810
2018-01-30T11:14:49.893Z,99807
2018-01-30T11:17:18.302Z,99806
2018-01-30T11:19:45.925Z,99801
2018-01-30T11:22:13.602Z,99800
2018-01-30T11:24:41.969Z,99788
2018-01-30T11:27:09.636Z,99785
2018-01-30T11:29:38.043Z,99779
2018-01-30T11:32:05.617Z,99780
2018-01-30T11:34:33.229Z,99781
2018-01-30T11:37:01.099Z,99774
2018-01-30T11:39:28.668Z,99779
2018-01-30T11:41:56.249Z,99773
2018-01-30T11:44:23.906Z,99767
2018-01-30T11:46:52.266Z,99767
2018-01-30T11:49:19.838Z,99763
2018-01-30T11:51:48.174Z,99753
2018-01-30T11:54:15.875Z,99754
2018-01-30T11:56:44.211Z,99746
2018-01-30T11:59:11.788Z,99746
2018-01-30T12:01:39.354Z,99739
2018-01-30T12:04:06.935Z,99735
2018-01-30T12:06:34.616Z,99733
2018-01-30T12:09:02.951Z,99728
2018-01-30T12:11:30.728Z,99725
2018-01-30T12:13:58.309Z,99709
2018-01-30T12:16:26.698Z,99714
2018-01-30T12:18:55.027Z,99711
2018-01-30T12:21:22.595Z,99716
2018-01-30T12:23:50.192Z,99708
2018-01-30T12:26:18.530Z,99692
2018-01-30T12:28:46.119Z,99694
2018-01-30T12:31:13.689Z,99688
2018-01-30T12:33:42.056Z,99686
2018-01-30T12:36:09.741Z,99691
2018-01-30T12:38:38.111Z,99680
2018-01-30T12:41:06.491Z,99678
2018-01-30T12:43:34.828Z,99682
2018-01-30T12:46:02.458Z,99668
2018-01-30T12:48:30.208Z,99671
2018-01-30T12:50:57.870Z,99661
2018-01-30T12:53:26.206Z,99669
2018-01-30T12:55:53.785Z,99669
2018-01-30T12:58:21.398Z,99668
2018-01-30T13:00:49.041Z,99666
2018-01-30T13:03:16.680Z,99661
2018-01-30T13:05:45.060Z,99663
2018-01-30T13:08:12.725Z,99657
2018-01-30T13:10:41.071Z,99653
2018-01-30T13:13:08.660Z,99654
2018-01-30T13:15:36.323Z,99656
2018-01-30T13:18:03.993Z,99653
2018-01-30T13:20:32.376Z,99655
2018-01-30T13:23:01.056Z,99651
2018-01-30T13:25:29.434Z,99638
2018-01-30T13:27:57.114Z,99637
2018-01-30T13:30:24.691Z,99632
2018-01-30T13:32:52.340Z,99639
2018-01-30T13:35:20.680Z,99631
2018-01-30T13:37:48.251Z,99620
2018-01-30T13:40:17.338Z,99621
2018-01-30T13:42:44.917Z,99617
2018-01-30T13:45:13.304Z,99608
2018-01-30T13:47:41.658Z,99615
2018-01-30T13:50:09.230Z,99615
2018-01-30T13:52:36.916Z,99615
2018-01-30T13:55:05.288Z,99622
2018-01-30T13:57:32.889Z,99621
2018-01-30T14:00:01.370Z,99621
2018-01-30T14:02:29.807Z,99626
2018-01-30T14:04:58.145Z,99625
2018-01-30T14:07:25.718Z,99617
2018-01-30T14:09:53.287Z,99624
2018-01-30T14:12:20.870Z,99621
2018-01-30T14:14:49.254Z,99633
2018-01-30T14:17:17.628Z,99636
2018-01-30T14:19:45.962Z,99633
2018-01-30T14:22:13.591Z,99623
2018-01-30T14:24:41.163Z,99629
2018-01-30T14:27:08.788Z,99629
2018-01-30T14:29:36.363Z,99629
2018-01-30T14:32:04.706Z,99631
2018-01-30T14:34:32.263Z,99621
2018-01-30T14:36:59.852Z,99628
2018-01-30T14:39:28.235Z,99626
2018-01-30T14:41:56.612Z,99630
2018-01-30T14:44:24.280Z,99624
2018-01-30T14:46:52.669Z,99620
2018-01-30T14:49:21.026Z,99619
2018-01-30T14:51:48.605Z,99613
2018-01-30T14:54:16.942Z,99607
2018-01-30T14:56:44.515Z,99603
2018-01-30T14:59:12.094Z,99611
2018-01-30T15:01:39.665Z,99607
2018-01-30T15:04:07.995Z,99608
2018-01-30T15:06:35.652Z,99604
2018-01-30T15:09:03.582Z,99602
2018-01-30T15:11:31.188Z,99588
2018-01-30T15:13:59.544Z,99587
2018-01-30T15:16:27.119Z,99585
2018-01-30T15:18:54.879Z,99576
2018-01-30T15:21:22.718Z,99570
2018-01-30T15:23:50.368Z,99573
2018-01-30T15:26:18.743Z,99563
2018-01-30T15:28:46.730Z,99550
2018-01-30T15:31:14.374Z,99557
2018-01-30T15:33:41.966Z,99556
2018-01-30T15:36:09.550Z,99545
2018-01-30T15:38:37.150Z,99543
2018-01-30T15:41:04.940Z,99544
2018-01-30T15:43:33.631Z,99553
2018-01-30T15:46:01.277Z,99535
2018-01-30T15:48:30.976Z,99539
2018-01-30T15:50:58.549Z,99543
2018-01-30T15:53:26.929Z,99529
2018-01-30T15:55:55.269Z,99540
2018-01-30T15:58:22.837Z,99546
2018-01-30T16:00:50.428Z,99534
2018-01-30T16:03:18.763Z,99538
2018-01-30T16:05:46.345Z,99518
2018-01-30T16:08:14.203Z,99523
2018-01-30T16:10:41.800Z,99523
2018-01-30T16:13:10.142Z,99514
2018-01-30T16:15:37.738Z,99512
2018-01-30T16:18:06.134Z,99519
2018-01-30T16:20:33.785Z,99515
2018-01-30T16:23:02.162Z,99519
2018-01-30T16:25:30.740Z,99517
2018-01-30T16:27:59.123Z,99514
2018-01-30T16:30:27.846Z,99511
2018-01-30T16:32:55.491Z,99509
2018-01-30T16:35:23.091Z,99505
2018-01-30T16:37:50.677Z,99499
2018-01-30T16:40:18.507Z,99507
2018-01-30T16:42:46.208Z,99504
2018-01-30T16:45:13.893Z,99497
2018-01-30T16:47:41.773Z,99495
2018-01-30T16:50:09.496Z,99498
2018-01-30T16:52:38.872Z,99497
2018-01-30T16:55:06.705Z,99499
2018-01-30T16:57:34.576Z,99508
2018-01-30T17:00:02.545Z,99498
2018-01-30T17:02:30.719Z,99503
2018-01-30T17:04:58.484Z,99492
2018-01-30T17:07:27.170Z,99494
2018-01-30T17:09:54.950Z,99493
2018-01-30T17:12:22.804Z,99498
2018-01-30T17:14:50.673Z,99503
2018-01-30T17:17:18.541Z,99494
2018-01-30T17:19:47.021Z,99493
2018-01-30T17:22:14.825Z,99486
2018-01-30T17:24:42.671Z,99495
2018-01-30T17:27:10.522Z,99506
2018-01-30T17:29:38.520Z,99499
2018-01-30T17:32:08.203Z,99493
2018-01-30T17:34:35.962Z,99495
2018-01-30T17:37:04.450Z,99487
2018-01-30T17:39:33.550Z,99487
2018-01-30T17:42:01.342Z,99486
2018-01-30T17:44:30.224Z,99479
2018-01-30T17:46:58.698Z,99489
2018-01-30T17:49:26.481Z,99496
2018-01-30T17:51:54.051Z,99478
2018-01-30T17:54:21.636Z,99470
2018-01-30T17:56:49.226Z,99478
2018-01-30T17:59:17.575Z,99480
2018-01-30T18:01:45.168Z,99470
2018-01-30T18:04:13.722Z,99470
2018-01-30T18:06:41.290Z,99477
2018-01-30T18:09:08.893Z,99488
2018-01-30T18:11:36.532Z,99472
2018-01-30T18:14:04.931Z,99480
2018-01-30T18:16:32.686Z,99488
2018-01-30T18:19:01.123Z,99493
2018-01-30T18:21:28.718Z,99483
2018-01-30T18:23:57.108Z,99480
2018-01-30T18:26:25.547Z,99483
2018-01-30T18:28:53.146Z,99486
2018-01-30T18:31:21.483Z,99479
2018-01-30T18:33:49.114Z,99480
2018-01-30T18:36:16.860Z,99483
2018-01-30T18:38:45.256Z,99487
2018-01-30T18:41:13.018Z,99490
2018-01-30T18:43:40.701Z,99492
2018-01-30T18:46:08.330Z,99503
2018-01-30T18:48:36.812Z,99495
2018-01-30T18:51:05.698Z,99496
2018-01-30T18:53:34.232Z,99488
2018-01-30T18:56:01.991Z,99481
2018-01-30T18:58:29.600Z,99486
2018-01-30T19:00:57.971Z,99483
2018-01-30T19:03:25.770Z,99493
2018-01-30T19:05:53.391Z,99479
2018-01-30T19:08:21.744Z,99479
2018-01-30T19:10:49.346Z,99471
2018-01-30T19:13:17.730Z,99480
2018-01-30T19:15:46.383Z,99478
2018-01-30T19:18:14.037Z,99474
2018-01-30T19:20:41.673Z,99477
2018-01-30T19:23:09.295Z,99469
2018-01-30T19:25:37.021Z,99467
2018-01-30T19:28:04.661Z,99468
2018-01-30T19:30:32.342Z,99480
2018-01-30T19:33:00.667Z,99472
2018-01-30T19:35:28.354Z,99466
2018-01-30T19:37:56.118Z,99463
2018-01-30T19:40:23.794Z,99469
2018-01-30T19:42:51.981Z,99456
2018-01-30T19:45:19.554Z,99464
2018-01-30T19:47:47.257Z,99455
2018-01-30T19:50:14.892Z,99452
2018-01-30T19:52:42.519Z,99455
2018-01-30T19:55:10.083Z,99448
2018-01-30T19:57:37.716Z,99437
2018-01-30T20:00:06.117Z,99437
2018-01-30T20:02:33.886Z,99440
2018-01-30T20:05:01.745Z,99441
2018-01-30T20:07:30.640Z,99431
2018-01-30T20:09:58.263Z,99435
2018-01-30T20:12:25.889Z,99432
2018-01-30T20:14:53.530Z,99423
2018-01-30T20:17:26.933Z,99421
2018-01-30T20:19:54.686Z,99407
2018-01-30T20:22:23.056Z,99418
2018-01-30T20:24:51.429Z,99420
2018-01-30T20:27:19.823Z,99420
2018-01-30T20:29:48.247Z,99420
2018-01-30T20:32:15.877Z,99409
2018-01-30T20:34:43.454Z,99408
2018-01-30T20:37:16.810Z,99400
2018-01-30T20:39:45.197Z,99392
2018-01-30T20:42:12.918Z,99390
2018-01-30T20:44:40.520Z,99381
2018-01-30T20:47:08.925Z,99378
2018-01-30T20:49:36.541Z,99377
2018-01-30T20:52:04.114Z,99371
2018-01-30T20:54:32.482Z,99370
2018-01-30T20:57:00.274Z,99360
2018-01-30T20:59:28.611Z,99364
2018-01-30T21:01:56.281Z,99365
2018-01-30T21:04:23.894Z,99354
2018-01-30T21:06:51.605Z,99351
2018-01-30T21:09:19.204Z,99340
2018-01-30T21:11:47.695Z,99345
2018-01-30T21:14:15.442Z,99335
2018-01-30T21:16:43.435Z,99334
2018-01-30T21:19:11.126Z,99321
2018-01-30T21:21:38.857Z,99326
2018-01-30T21:24:06.470Z,99323
2018-01-30T21:26:34.223Z,99327
2018-01-30T21:29:02.040Z,99318
2018-01-30T21:31:31.428Z,99314
2018-01-30T21:33:59.105Z,99306
2018-01-30T21:36:27.493Z,99296
2018-01-30T21:38:55.142Z,99292
2018-01-30T21:41:23.547Z,99291
2018-01-30T21:43:51.134Z,99289
2018-01-30T21:46:18.932Z,99289
2018-01-30T21:48:47.368Z,99289
2018-01-30T21:51:14.938Z,99279
2018-01-30T21:53:42.540Z,99289
2018-01-30T21:56:10.967Z,99277
2018-01-30T21:58:38.686Z,99287
2018-01-30T22:01:07.119Z,99272
2018-01-30T22:03:34.786Z,99272
2018-01-30T22:06:02.437Z,99281
2018-01-30T22:08:30.284Z,99278
2018-01-30T22:10:58.748Z,99282
2018-01-30T22:13:26.501Z,99278
2018-01-30T22:15:54.890Z,99276
2018-01-30T22:18:22.468Z,99278
2018-01-30T22:20:50.900Z,99286
2018-01-30T22:23:18.549Z,99286
2018-01-30T22:25:46.203Z,99287
2018-01-30T22:28:13.866Z,99274
2018-01-30T22:30:41.487Z,99264
2018-01-30T22:33:09.877Z,99263
2018-01-30T22:35:38.209Z,99259
2018-01-30T22:38:06.645Z,99258
2018-01-30T22:40:34.347Z,99251
2018-01-30T22:43:02.382Z,99253
2018-01-30T22:45:30.621Z,99248
